sensor_id;sensor_type;location;lat;lon;timestamp;pressure;altitude;pressure_sealevel;temperature;humidity
5877;BME280;2964;42.144;24.730;2023-03-04T00:02:12;142532.09;;;3.68;100.00
5877;BME280;2964;42.144;24.730;2023-03-04T00:04:38;142519.59;;;3.63;100.00
5877;BME280;2964;42.144;24.730;2023-03-04T00:07:05;142605.75;;;3.98;100.00
5877;BME280;2964;42.144;24.730;2023-03-04T00:09:32;142615.78;;;4.02;100.00
5877;BME280;2964;42.144;24.730;2023-03-04T00:11:58;142598.28;;;3.95;100.00
5877;BME280;2964;42.144;24.730;2023-03-04T00:14:25;142628.25;;;4.07;100.00
5877;BME280;2964;42.144;24.730;2023-03-04T00:16:53;142597.06;;;3.95;100.00
5877;BME280;2964;42.144;24.730;2023-03-04T00:19:20;142572.06;;;3.84;100.00
5877;BME280;2964;42.144;24.730;2023-03-04T00:21:46;142700.75;;;4.37;100.00
5877;BME280;2964;42.144;24.730;2023-03-04T00:24:13;142583.28;;;3.89;100.00
5877;BME280;2964;42.144;24.730;2023-03-04T00:26:40;142623.25;;;4.05;100.00
5877;BME280;2964;42.144;24.730;2023-03-04T00:29:06;142599.53;;;3.96;100.00
5877;BME280;2964;42.144;24.730;2023-03-04T00:31:33;142597.06;;;3.95;100.00
5877;BME280;2964;42.144;24.730;2023-03-04T00:34:01;142614.50;;;4.02;100.00
5877;BME280;2964;42.144;24.730;2023-03-04T00:36:27;142719.50;;;4.45;100.00
5877;BME280;2964;42.144;24.730;2023-03-04T00:38:54;142674.50;;;4.27;100.00
5877;BME280;2964;42.144;24.730;2023-03-04T00:41:21;142638.28;;;4.12;100.00
5877;BME280;2964;42.144;24.730;2023-03-04T00:43:47;142725.72;;;4.48;100.00
5877;BME280;2964;42.144;24.730;2023-03-04T00:46:14;142664.50;;;4.22;100.00
5877;BME280;2964;42.144;24.730;2023-03-04T00:48:41;142653.25;;;4.18;100.00
5877;BME280;2964;42.144;24.730;2023-03-04T00:51:09;142768.25;;;4.65;100.00
5877;BME280;2964;42.144;24.730;2023-03-04T00:53:35;142680.72;;;4.29;100.00
5877;BME280;2964;42.144;24.730;2023-03-04T00:56:02;142627.00;;;4.07;100.00
5877;BME280;2964;42.144;24.730;2023-03-04T00:58:29;142623.25;;;4.05;100.00
5877;BME280;2964;42.144;24.730;2023-03-04T01:00:56;142604.53;;;3.98;100.00
5877;BME280;2964;42.144;24.730;2023-03-04T01:03:22;142607.03;;;3.99;100.00
5877;BME280;2964;42.144;24.730;2023-03-04T01:05:51;142598.28;;;3.95;100.00
5877;BME280;2964;42.144;24.730;2023-03-04T01:08:19;142597.06;;;3.95;100.00
5877;BME280;2964;42.144;24.730;2023-03-04T01:10:45;142624.53;;;4.06;100.00
5877;BME280;2964;42.144;24.730;2023-03-04T01:13:12;142608.28;;;3.99;100.00
5877;BME280;2964;42.144;24.730;2023-03-04T01:15:39;142590.78;;;3.92;100.00
5877;BME280;2964;42.144;24.730;2023-03-04T01:18:06;142583.28;;;3.89;100.00
5877;BME280;2964;42.144;24.730;2023-03-04T01:20:32;142584.56;;;3.90;100.00
5877;BME280;2964;42.144;24.730;2023-03-04T01:22:59;142637.00;;;4.11;100.00
5877;BME280;2964;42.144;24.730;2023-03-04T01:25:27;142608.28;;;3.99;100.00
5877;BME280;2964;42.144;24.730;2023-03-04T01:27:54;142588.31;;;3.91;100.00
5877;BME280;2964;42.144;24.730;2023-03-04T01:30:20;142599.53;;;3.96;100.00
5877;BME280;2964;42.144;24.730;2023-03-04T01:32:47;142595.78;;;3.94;100.00
5877;BME280;2964;42.144;24.730;2023-03-04T01:35:14;142595.78;;;3.94;100.00
5877;BME280;2964;42.144;24.730;2023-03-04T01:37:41;142515.84;;;3.61;100.00
5877;BME280;2964;42.144;24.730;2023-03-04T01:40:09;142595.78;;;3.94;100.00
5877;BME280;2964;42.144;24.730;2023-03-04T01:42:37;142633.28;;;4.10;100.00
5877;BME280;2964;42.144;24.730;2023-03-04T01:45:05;142617.03;;;4.03;100.00
5877;BME280;2964;42.144;24.730;2023-03-04T01:47:33;142638.28;;;4.12;100.00
5877;BME280;2964;42.144;24.730;2023-03-04T01:50:02;142660.75;;;4.21;100.00
5877;BME280;2964;42.144;24.730;2023-03-04T01:52:29;142715.72;;;4.43;100.00
5877;BME280;2964;42.144;24.730;2023-03-04T01:54:56;142676.97;;;4.28;100.00
5877;BME280;2964;42.144;24.730;2023-03-04T01:57:24;142694.47;;;4.35;100.00
5877;BME280;2964;42.144;24.730;2023-03-04T02:02:53;142645.75;;;4.15;100.00
5877;BME280;2964;42.144;24.730;2023-03-04T02:05:21;142644.50;;;4.14;100.00
5877;BME280;2964;42.144;24.730;2023-03-04T02:07:48;142645.75;;;4.15;100.00
5877;BME280;2964;42.144;24.730;2023-03-04T02:10:15;142648.25;;;4.16;100.00
5877;BME280;2964;42.144;24.730;2023-03-04T02:12:43;142649.50;;;4.16;100.00
5877;BME280;2964;42.144;24.730;2023-03-04T02:15:10;142659.47;;;4.20;100.00
5877;BME280;2964;42.144;24.730;2023-03-04T02:17:37;142659.47;;;4.20;100.00
5877;BME280;2964;42.144;24.730;2023-03-04T02:20:13;142647.03;;;4.15;100.00
5877;BME280;2964;42.144;24.730;2023-03-04T02:22:45;142684.50;;;4.31;100.00
5877;BME280;2964;42.144;24.730;2023-03-04T02:25:17;142688.25;;;4.32;100.00
5877;BME280;2964;42.144;24.730;2023-03-04T02:27:48;142704.47;;;4.39;100.00
5877;BME280;2964;42.144;24.730;2023-03-04T02:30:19;142730.72;;;4.50;100.00
5877;BME280;2964;42.144;24.730;2023-03-04T02:32:47;142823.22;;;4.88;100.00
5877;BME280;2964;42.144;24.730;2023-03-04T02:35:15;142749.44;;;4.57;100.00
5877;BME280;2964;42.144;24.730;2023-03-04T02:37:42;142723.25;;;4.47;100.00
5877;BME280;2964;42.144;24.730;2023-03-04T02:40:14;142733.22;;;4.51;100.00
5877;BME280;2964;42.144;24.730;2023-03-04T02:42:43;142798.19;;;4.77;100.00
5877;BME280;2964;42.144;24.730;2023-03-04T02:45:39;142773.22;;;4.67;100.00
5877;BME280;2964;42.144;24.730;2023-03-04T02:48:07;142725.72;;;4.48;100.00
5877;BME280;2964;42.144;24.730;2023-03-04T02:50:37;142806.97;;;4.81;100.00
5877;BME280;2964;42.144;24.730;2023-03-04T02:53:05;142796.97;;;4.77;100.00
5877;BME280;2964;42.144;24.730;2023-03-04T02:55:31;142628.25;;;4.07;100.00
5877;BME280;2964;42.144;24.730;2023-03-04T02:57:58;142623.25;;;4.05;100.00
5877;BME280;2964;42.144;24.730;2023-03-04T03:00:26;142505.84;;;3.57;100.00
5877;BME280;2964;42.144;24.730;2023-03-04T03:02:54;142758.19;;;4.61;100.00
5877;BME280;2964;42.144;24.730;2023-03-04T03:05:22;142775.69;;;4.68;100.00
5877;BME280;2964;42.144;24.730;2023-03-04T03:07:50;142701.97;;;4.38;100.00
5877;BME280;2964;42.144;24.730;2023-03-04T03:10:16;142627.00;;;4.07;100.00
5877;BME280;2964;42.144;24.730;2023-03-04T03:12:43;142590.78;;;3.92;100.00
5877;BME280;2964;42.144;24.730;2023-03-04T03:15:10;142643.25;;;4.14;100.00
5877;BME280;2964;42.144;24.730;2023-03-04T03:17:37;142580.78;;;3.88;100.00
5877;BME280;2964;42.144;24.730;2023-03-04T03:20:07;142570.81;;;3.84;100.00
5877;BME280;2964;42.144;24.730;2023-03-04T03:22:34;142680.72;;;4.29;100.00
5877;BME280;2964;42.144;24.730;2023-03-04T03:25:00;142608.28;;;3.99;100.00
5877;BME280;2964;42.144;24.730;2023-03-04T03:27:27;142528.31;;;3.66;100.00
5877;BME280;2964;42.144;24.730;2023-03-04T03:29:54;142554.56;;;3.77;100.00
5877;BME280;2964;42.144;24.730;2023-03-04T03:32:20;142680.72;;;4.29;100.00
5877;BME280;2964;42.144;24.730;2023-03-04T03:34:47;142580.78;;;3.88;100.00
5877;BME280;2964;42.144;24.730;2023-03-04T03:37:15;142545.81;;;3.74;100.00
5877;BME280;2964;42.144;24.730;2023-03-04T03:39:42;142558.31;;;3.79;100.00
5877;BME280;2964;42.144;24.730;2023-03-04T03:42:09;142637.00;;;4.11;100.00
5877;BME280;2964;42.144;24.730;2023-03-04T03:44:35;142548.34;;;3.75;100.00
5877;BME280;2964;42.144;24.730;2023-03-04T03:47:02;142508.38;;;3.58;100.00
5877;BME280;2964;42.144;24.730;2023-03-04T03:49:29;142483.38;;;3.48;100.00
5877;BME280;2964;42.144;24.730;2023-03-04T03:51:55;142487.13;;;3.50;100.00
5877;BME280;2964;42.144;24.730;2023-03-04T03:54:24;142520.88;;;3.63;100.00
5877;BME280;2964;42.144;24.730;2023-03-04T03:56:50;142520.88;;;3.63;100.00
5877;BME280;2964;42.144;24.730;2023-03-04T03:59:17;142480.91;;;3.47;100.00
5877;BME280;2964;42.144;24.730;2023-03-04T04:01:44;142550.81;;;3.76;100.00
5877;BME280;2964;42.144;24.730;2023-03-04T04:04:10;142530.84;;;3.67;100.00
5877;BME280;2964;42.144;24.730;2023-03-04T04:06:37;142523.34;;;3.64;100.00
5877;BME280;2964;42.144;24.730;2023-03-04T04:09:04;142495.88;;;3.53;100.00
5877;BME280;2964;42.144;24.730;2023-03-04T04:11:32;142480.91;;;3.47;100.00
5877;BME280;2964;42.144;24.730;2023-03-04T04:13:58;142418.47;;;3.21;100.00
5877;BME280;2964;42.144;24.730;2023-03-04T04:16:25;142475.91;;;3.45;100.00
5877;BME280;2964;42.144;24.730;2023-03-04T04:18:52;142493.34;;;3.52;100.00
5877;BME280;2964;42.144;24.730;2023-03-04T04:21:18;142482.16;;;3.47;100.00
5877;BME280;2964;42.144;24.730;2023-03-04T04:23:45;142473.41;;;3.44;100.00
5877;BME280;2964;42.144;24.730;2023-03-04T04:26:12;142488.38;;;3.50;100.00
5877;BME280;2964;42.144;24.730;2023-03-04T04:28:40;142487.13;;;3.50;100.00
5877;BME280;2964;42.144;24.730;2023-03-04T04:31:07;142483.38;;;3.48;100.00
5877;BME280;2964;42.144;24.730;2023-03-04T04:33:34;142513.38;;;3.60;100.00
5877;BME280;2964;42.144;24.730;2023-03-04T04:36:01;142520.88;;;3.63;100.00
5877;BME280;2964;42.144;24.730;2023-03-04T04:38:29;142598.28;;;3.95;100.00
5877;BME280;2964;42.144;24.730;2023-03-04T04:40:57;142560.78;;;3.80;100.00
5877;BME280;2964;42.144;24.730;2023-03-04T04:43:24;142518.34;;;3.62;100.00
5877;BME280;2964;42.144;24.730;2023-03-04T04:45:52;142524.56;;;3.65;100.00
5877;BME280;2964;42.144;24.730;2023-03-04T04:48:19;142507.09;;;3.58;100.00
5877;BME280;2964;42.144;24.730;2023-03-04T04:50:45;142635.75;;;4.11;100.00
5877;BME280;2964;42.144;24.730;2023-03-04T04:53:12;142593.31;;;3.93;100.00
5877;BME280;2964;42.144;24.730;2023-03-04T04:55:39;142547.06;;;3.74;100.00
5877;BME280;2964;42.144;24.730;2023-03-04T04:58:06;142548.34;;;3.75;100.00
5877;BME280;2964;42.144;24.730;2023-03-04T05:00:33;142558.31;;;3.79;100.00
5877;BME280;2964;42.144;24.730;2023-03-04T05:03:01;142543.34;;;3.73;100.00
5877;BME280;2964;42.144;24.730;2023-03-04T05:05:27;142543.34;;;3.73;100.00
5877;BME280;2964;42.144;24.730;2023-03-04T05:07:54;142559.56;;;3.79;100.00
5877;BME280;2964;42.144;24.730;2023-03-04T05:10:20;142532.09;;;3.68;100.00
5877;BME280;2964;42.144;24.730;2023-03-04T05:12:47;142577.03;;;3.86;100.00
5877;BME280;2964;42.144;24.730;2023-03-04T05:15:15;142657.00;;;4.19;100.00
5877;BME280;2964;42.144;24.730;2023-03-04T05:17:42;142478.38;;;3.46;100.00
5877;BME280;2964;42.144;24.730;2023-03-04T05:20:11;142629.53;;;4.08;100.00
5877;BME280;2964;42.144;24.730;2023-03-04T05:22:37;142588.31;;;3.91;100.00
5877;BME280;2964;42.144;24.730;2023-03-04T05:25:04;142514.59;;;3.61;100.00
5877;BME280;2964;42.144;24.730;2023-03-04T05:27:31;142387.25;;;3.08;100.00
5877;BME280;2964;42.144;24.730;2023-03-04T05:29:58;142383.50;;;3.07;100.00
5877;BME280;2964;42.144;24.730;2023-03-04T05:32:25;142376.00;;;3.04;100.00
5877;BME280;2964;42.144;24.730;2023-03-04T05:34:51;142338.59;;;2.88;100.00
5877;BME280;2964;42.144;24.730;2023-03-04T05:37:19;142396.00;;;3.12;100.00
5877;BME280;2964;42.144;24.730;2023-03-04T05:39:46;142356.06;;;2.96;100.00
5877;BME280;2964;42.144;24.730;2023-03-04T05:42:13;142378.53;;;3.05;100.00
5877;BME280;2964;42.144;24.730;2023-03-04T05:44:39;142348.56;;;2.93;100.00
5877;BME280;2964;42.144;24.730;2023-03-04T05:47:06;142348.56;;;2.93;100.00
5877;BME280;2964;42.144;24.730;2023-03-04T05:49:33;142391.03;;;3.10;100.00
5877;BME280;2964;42.144;24.730;2023-03-04T05:51:59;142341.06;;;2.89;100.00
5877;BME280;2964;42.144;24.730;2023-03-04T05:54:27;142388.50;;;3.09;100.00
5877;BME280;2964;42.144;24.730;2023-03-04T05:56:54;142422.22;;;3.23;100.00
5877;BME280;2964;42.144;24.730;2023-03-04T05:59:21;142430.97;;;3.26;100.00
5877;BME280;2964;42.144;24.730;2023-03-04T06:01:48;142445.94;;;3.33;100.00
5877;BME280;2964;42.144;24.730;2023-03-04T06:04:14;142464.66;;;3.40;100.00
5877;BME280;2964;42.144;24.730;2023-03-04T06:06:41;142427.22;;;3.25;100.00
5877;BME280;2964;42.144;24.730;2023-03-04T06:09:10;142444.69;;;3.32;100.00
5877;BME280;2964;42.144;24.730;2023-03-04T06:11:39;142515.84;;;3.61;100.00
5877;BME280;2964;42.144;24.730;2023-03-04T06:14:05;142494.63;;;3.53;100.00
5877;BME280;2964;42.144;24.730;2023-03-04T06:16:32;142453.44;;;3.36;100.00
5877;BME280;2964;42.144;24.730;2023-03-04T06:18:59;142443.41;;;3.32;100.00
5877;BME280;2964;42.144;24.730;2023-03-04T06:21:25;142490.88;;;3.51;100.00
5877;BME280;2964;42.144;24.730;2023-03-04T06:23:52;142435.97;;;3.28;100.00
5877;BME280;2964;42.144;24.730;2023-03-04T06:26:19;142468.41;;;3.42;100.00
5877;BME280;2964;42.144;24.730;2023-03-04T06:28:47;142559.56;;;3.79;100.00
5877;BME280;2964;42.144;24.730;2023-03-04T06:31:14;142497.09;;;3.54;100.00
5877;BME280;2964;42.144;24.730;2023-03-04T06:33:40;142453.44;;;3.36;100.00
5877;BME280;2964;42.144;24.730;2023-03-04T06:36:07;142503.38;;;3.56;100.00
5877;BME280;2964;42.144;24.730;2023-03-04T06:38:34;142548.34;;;3.75;100.00
5877;BME280;2964;42.144;24.730;2023-03-04T06:41:05;142490.88;;;3.51;100.00
5877;BME280;2964;42.144;24.730;2023-03-04T06:43:32;142540.84;;;3.72;100.00
5877;BME280;2964;42.144;24.730;2023-03-04T06:46:00;142519.59;;;3.63;100.00
5877;BME280;2964;42.144;24.730;2023-03-04T06:48:27;142504.63;;;3.57;100.00
5877;BME280;2964;42.144;24.730;2023-03-04T06:50:55;142518.34;;;3.62;100.00
5877;BME280;2964;42.144;24.730;2023-03-04T06:53:21;142562.06;;;3.80;100.00
5877;BME280;2964;42.144;24.730;2023-03-04T06:55:48;142597.06;;;3.95;100.00
5877;BME280;2964;42.144;24.730;2023-03-04T06:58:15;142523.34;;;3.64;100.00
5877;BME280;2964;42.144;24.730;2023-03-04T07:00:42;142655.75;;;4.19;100.00
5877;BME280;2964;42.144;24.730;2023-03-04T07:03:11;142740.75;;;4.54;100.00
5877;BME280;2964;42.144;24.730;2023-03-04T07:05:38;142688.25;;;4.32;100.00
5877;BME280;2964;42.144;24.730;2023-03-04T07:08:04;142749.44;;;4.57;100.00
5877;BME280;2964;42.144;24.730;2023-03-04T07:10:32;142708.22;;;4.40;100.00
5877;BME280;2964;42.144;24.730;2023-03-04T07:12:59;142730.72;;;4.50;100.00
5877;BME280;2964;42.144;24.730;2023-03-04T07:15:25;142728.25;;;4.49;100.00
5877;BME280;2964;42.144;24.730;2023-03-04T07:17:52;142815.72;;;4.84;100.00
5877;BME280;2964;42.144;24.730;2023-03-04T07:20:20;142836.97;;;4.93;100.00
5877;BME280;2964;42.144;24.730;2023-03-04T07:22:48;142845.72;;;4.97;100.00
5877;BME280;2964;42.144;24.730;2023-03-04T07:25:15;142835.75;;;4.93;100.00
5877;BME280;2964;42.144;24.730;2023-03-04T07:27:42;142885.75;;;5.13;100.00
5877;BME280;2964;42.144;24.730;2023-03-04T07:30:10;142898.25;;;5.18;100.00
5877;BME280;2964;42.144;24.730;2023-03-04T07:32:37;142889.50;;;5.15;100.00
5877;BME280;2964;42.144;24.730;2023-03-04T07:35:04;142901.97;;;5.20;100.00
5877;BME280;2964;42.144;24.730;2023-03-04T07:37:32;143037.06;;;5.75;100.00
5877;BME280;2964;42.144;24.730;2023-03-04T07:39:59;143088.44;;;5.96;100.00
5877;BME280;2964;42.144;24.730;2023-03-04T07:42:26;143122.19;;;6.10;100.00
5877;BME280;2964;42.144;24.730;2023-03-04T07:44:52;143093.44;;;5.98;100.00
5877;BME280;2964;42.144;24.730;2023-03-04T07:47:20;143112.19;;;6.06;100.00
5877;BME280;2964;42.144;24.730;2023-03-04T07:49:46;143045.81;;;5.79;100.00
5877;BME280;2964;42.144;24.730;2023-03-04T07:52:13;143020.81;;;5.69;100.00
5877;BME280;2964;42.144;24.730;2023-03-04T07:54:41;142999.53;;;5.60;100.00
5877;BME280;2964;42.144;24.730;2023-03-04T07:57:08;143065.84;;;5.87;100.00
5877;BME280;2964;42.144;24.730;2023-03-04T07:59:34;143088.44;;;5.96;100.00
5877;BME280;2964;42.144;24.730;2023-03-04T08:02:01;143042.09;;;5.77;100.00
5877;BME280;2964;42.144;24.730;2023-03-04T08:04:28;143045.81;;;5.79;100.00
5877;BME280;2964;42.144;24.730;2023-03-04T08:06:54;143093.44;;;5.98;100.00
5877;BME280;2964;42.144;24.730;2023-03-04T08:09:21;143074.63;;;5.91;100.00
5877;BME280;2964;42.144;24.730;2023-03-04T08:11:49;143003.31;;;5.61;100.00
5877;BME280;2964;42.144;24.730;2023-03-04T08:14:16;142985.78;;;5.54;100.00
5877;BME280;2964;42.144;24.730;2023-03-04T08:16:43;143115.94;;;6.08;100.00
5877;BME280;2964;42.144;24.730;2023-03-04T08:19:10;143272.44;;;6.72;100.00
5877;BME280;2964;42.144;24.730;2023-03-04T08:21:37;143027.06;;;5.71;100.00
5877;BME280;2964;42.144;24.730;2023-03-04T08:24:05;143166.00;;;6.28;100.00
5877;BME280;2964;42.144;24.730;2023-03-04T08:26:34;143112.19;;;6.06;100.00
5877;BME280;2964;42.144;24.730;2023-03-04T08:29:04;143299.97;;;6.83;100.00
5877;BME280;2964;42.144;24.730;2023-03-04T08:31:31;143306.22;;;6.86;100.00
5877;BME280;2964;42.144;24.730;2023-03-04T08:33:59;143296.22;;;6.82;100.00
5877;BME280;2964;42.144;24.730;2023-03-04T08:36:25;143286.19;;;6.78;100.00
5877;BME280;2964;42.144;24.730;2023-03-04T08:38:52;143341.28;;;7.00;100.00
5877;BME280;2964;42.144;24.730;2023-03-04T08:41:19;143213.59;;;6.48;100.00
5877;BME280;2964;42.144;24.730;2023-03-04T08:43:47;143151.00;;;6.22;100.00
5877;BME280;2964;42.144;24.730;2023-03-04T08:46:15;143308.75;;;6.87;100.00
5877;BME280;2964;42.144;24.730;2023-03-04T08:48:42;143392.66;;;7.21;100.00
5877;BME280;2964;42.144;24.730;2023-03-04T08:51:09;143481.59;;;7.58;100.00
5877;BME280;2964;42.144;24.730;2023-03-04T08:53:36;143550.53;;;7.86;100.00
5877;BME280;2964;42.144;24.730;2023-03-04T08:56:04;143521.69;;;7.74;100.00
5877;BME280;2964;42.144;24.730;2023-03-04T08:58:31;143619.47;;;8.14;100.00
5877;BME280;2964;42.144;24.730;2023-03-04T09:00:59;143699.75;;;8.47;100.00
5877;BME280;2964;42.144;24.730;2023-03-04T09:03:28;143732.34;;;8.60;100.00
5877;BME280;2964;42.144;24.730;2023-03-04T09:05:55;143907.97;;;9.32;99.16
5877;BME280;2964;42.144;24.730;2023-03-04T09:08:22;144044.75;;;9.88;96.32
5877;BME280;2964;42.144;24.730;2023-03-04T09:10:51;144142.72;;;10.28;93.82
5877;BME280;2964;42.144;24.730;2023-03-04T09:13:18;143984.53;;;9.63;94.17
5877;BME280;2964;42.144;24.730;2023-03-04T09:15:46;143869.06;;;9.16;95.87
5877;BME280;2964;42.144;24.730;2023-03-04T09:18:14;143879.13;;;9.20;96.99
5877;BME280;2964;42.144;24.730;2023-03-04T09:20:42;143920.53;;;9.37;96.08
5877;BME280;2964;42.144;24.730;2023-03-04T09:23:09;144133.91;;;10.24;94.25
5877;BME280;2964;42.144;24.730;2023-03-04T09:25:37;144018.41;;;9.77;95.62
5877;BME280;2964;42.144;24.730;2023-03-04T09:28:05;143983.28;;;9.63;94.42
5877;BME280;2964;42.144;24.730;2023-03-04T09:30:32;143795.06;;;8.86;95.78
5877;BME280;2964;42.144;24.730;2023-03-04T09:32:59;143744.91;;;8.65;99.35
5877;BME280;2964;42.144;24.730;2023-03-04T09:35:25;143864.03;;;9.14;96.39
5877;BME280;2964;42.144;24.730;2023-03-04T09:37:55;143983.28;;;9.63;95.98
5877;BME280;2964;42.144;24.730;2023-03-04T09:40:24;144162.84;;;10.36;93.22
5877;BME280;2964;42.144;24.730;2023-03-04T09:42:55;144198.00;;;10.51;91.27
5877;BME280;2964;42.144;24.730;2023-03-04T09:45:27;143910.47;;;9.33;94.13
5877;BME280;2964;42.144;24.730;2023-03-04T09:47:55;143998.34;;;9.69;95.01
5877;BME280;2964;42.144;24.730;2023-03-04T09:50:23;144000.88;;;9.70;97.18
5877;BME280;2964;42.144;24.730;2023-03-04T09:53:09;144257.03;;;10.75;92.87
5877;BME280;2964;42.144;24.730;2023-03-04T09:55:43;144263.34;;;10.77;90.86
5877;BME280;2964;42.144;24.730;2023-03-04T09:58:18;144415.38;;;11.39;89.15
5877;BME280;2964;42.144;24.730;2023-03-04T10:00:54;144604.03;;;12.16;87.22
5877;BME280;2964;42.144;24.730;2023-03-04T10:03:23;144591.44;;;12.11;84.47
5877;BME280;2964;42.144;24.730;2023-03-04T10:05:54;144460.63;;;11.58;85.99
5877;BME280;2964;42.144;24.730;2023-03-04T10:08:39;144292.22;;;10.89;90.38
5877;BME280;2964;42.144;24.730;2023-03-04T10:11:14;144357.59;;;11.16;90.16
5877;BME280;2964;42.144;24.730;2023-03-04T10:13:50;144284.69;;;10.86;89.01
5877;BME280;2964;42.144;24.730;2023-03-04T10:16:22;144069.91;;;9.98;93.38
5877;BME280;2964;42.144;24.730;2023-03-04T10:18:54;144123.88;;;10.20;92.82
5877;BME280;2964;42.144;24.730;2023-03-04T10:21:26;144193.00;;;10.49;92.95
5877;BME280;2964;42.144;24.730;2023-03-04T10:23:59;144161.59;;;10.36;91.43
5877;BME280;2964;42.144;24.730;2023-03-04T10:26:28;144176.66;;;10.42;91.45
5877;BME280;2964;42.144;24.730;2023-03-04T10:28:57;144179.19;;;10.43;91.11
5877;BME280;2964;42.144;24.730;2023-03-04T10:31:31;144068.66;;;9.98;92.43
5877;BME280;2964;42.144;24.730;2023-03-04T10:34:01;144156.56;;;10.34;93.14
5877;BME280;2964;42.144;24.730;2023-03-04T10:36:45;144220.63;;;10.60;91.03
5877;BME280;2964;42.144;24.730;2023-03-04T10:39:18;144156.56;;;10.34;91.13
5877;BME280;2964;42.144;24.730;2023-03-04T10:41:54;143969.47;;;9.57;94.29
5877;BME280;2964;42.144;24.730;2023-03-04T10:44:22;144073.66;;;10.00;95.41
5877;BME280;2964;42.144;24.730;2023-03-04T10:46:49;144073.66;;;10.00;96.67
5877;BME280;2964;42.144;24.730;2023-03-04T10:49:18;144091.25;;;10.07;97.57
5877;BME280;2964;42.144;24.730;2023-03-04T10:51:47;144056.09;;;9.93;99.61
5877;BME280;2964;42.144;24.730;2023-03-04T10:54:23;144100.03;;;10.11;98.40
5877;BME280;2964;42.144;24.730;2023-03-04T10:56:58;143999.56;;;9.70;99.87
5877;BME280;2964;42.144;24.730;2023-03-04T10:59:47;144106.31;;;10.13;99.21
5877;BME280;2964;42.144;24.730;2023-03-04T11:02:22;144155.31;;;10.33;98.36
5877;BME280;2964;42.144;24.730;2023-03-04T11:04:55;144179.19;;;10.43;97.92
5877;BME280;2964;42.144;24.730;2023-03-04T11:07:24;144236.97;;;10.67;95.52
5877;BME280;2964;42.144;24.730;2023-03-04T11:09:53;144159.09;;;10.35;99.74
5877;BME280;2964;42.144;24.730;2023-03-04T11:12:21;144096.28;;;10.09;100.00
5877;BME280;2964;42.144;24.730;2023-03-04T11:14:57;144125.13;;;10.21;99.11
5877;BME280;2964;42.144;24.730;2023-03-04T11:17:25;144228.16;;;10.63;96.47
5877;BME280;2964;42.144;24.730;2023-03-04T11:19:56;144282.19;;;10.85;94.14
5877;BME280;2964;42.144;24.730;2023-03-04T11:22:25;144223.16;;;10.61;94.55
5877;BME280;2964;42.144;24.730;2023-03-04T11:25:02;144376.44;;;11.24;93.16
5877;BME280;2964;42.144;24.730;2023-03-04T11:27:38;144282.19;;;10.85;94.87
5877;BME280;2964;42.144;24.730;2023-03-04T11:30:31;144468.19;;;11.61;91.77
5877;BME280;2964;42.144;24.730;2023-03-04T11:33:07;144221.91;;;10.60;92.42
5877;BME280;2964;42.144;24.730;2023-03-04T11:35:43;144340.00;;;11.09;92.99
5877;BME280;2964;42.144;24.730;2023-03-04T11:38:16;144288.47;;;10.88;92.68
5877;BME280;2964;42.144;24.730;2023-03-04T11:40:49;144318.63;;;11.00;92.15
5877;BME280;2964;42.144;24.730;2023-03-04T11:43:22;144395.28;;;11.31;89.85
5877;BME280;2964;42.144;24.730;2023-03-04T11:49:10;144297.25;;;10.91;90.52
5877;BME280;2964;42.144;24.730;2023-03-04T11:51:41;144242.00;;;10.69;92.60
5877;BME280;2964;42.144;24.730;2023-03-04T11:54:17;144130.16;;;10.23;93.88
5877;BME280;2964;42.144;24.730;2023-03-04T11:56:50;144272.16;;;10.81;93.76
5877;BME280;2964;42.144;24.730;2023-03-04T11:59:33;144181.72;;;10.44;90.61
5877;BME280;2964;42.144;24.730;2023-03-04T12:02:14;144252.03;;;10.73;91.47
5877;BME280;2964;42.144;24.730;2023-03-04T12:10:54;144288.47;;;10.88;90.85
5877;BME280;2964;42.144;24.730;2023-03-04T12:16:45;144219.38;;;10.59;88.17
5877;BME280;2964;42.144;24.730;2023-03-04T12:19:24;144435.50;;;11.48;89.02
5877;BME280;2964;42.144;24.730;2023-03-04T12:22:23;144400.31;;;11.33;88.15
5877;BME280;2964;42.144;24.730;2023-03-04T12:25:15;144336.22;;;11.07;89.29
5877;BME280;2964;42.144;24.730;2023-03-04T12:27:50;144400.31;;;11.33;89.49
5877;BME280;2964;42.144;24.730;2023-03-04T12:30:36;144455.59;;;11.56;89.35
5877;BME280;2964;42.144;24.730;2023-03-04T12:33:11;144451.81;;;11.54;87.70
5877;BME280;2964;42.144;24.730;2023-03-04T12:35:48;144347.50;;;11.12;87.77
5877;BME280;2964;42.144;24.730;2023-03-04T12:38:30;144278.41;;;10.84;88.61
5877;BME280;2964;42.144;24.730;2023-03-04T12:41:10;144422.94;;;11.43;87.18
5877;BME280;2964;42.144;24.730;2023-03-04T12:43:41;144416.66;;;11.40;86.37
5877;BME280;2964;42.144;24.730;2023-03-04T12:46:26;144342.50;;;11.10;87.05
5877;BME280;2964;42.144;24.730;2023-03-04T12:49:13;144376.44;;;11.24;88.15
5877;BME280;2964;42.144;24.730;2023-03-04T12:51:44;144500.84;;;11.74;85.82
5877;BME280;2964;42.144;24.730;2023-03-04T12:54:21;144596.47;;;12.13;85.27
5877;BME280;2964;42.144;24.730;2023-03-04T12:56:53;144680.75;;;12.48;84.93
5877;BME280;2964;42.144;24.730;2023-03-04T12:59:21;144705.94;;;12.58;81.86
5877;BME280;2964;42.144;24.730;2023-03-04T13:01:55;144561.28;;;11.99;84.26
5877;BME280;2964;42.144;24.730;2023-03-04T13:04:37;144517.22;;;11.81;85.01
5877;BME280;2964;42.144;24.730;2023-03-04T13:07:13;144591.44;;;12.11;84.42
5877;BME280;2964;42.144;24.730;2023-03-04T13:09:49;144541.13;;;11.91;83.58
5877;BME280;2964;42.144;24.730;2023-03-04T13:12:18;144585.16;;;12.09;83.34
5877;BME280;2964;42.144;24.730;2023-03-04T13:15:15;144527.28;;;11.85;84.25
5877;BME280;2964;42.144;24.730;2023-03-04T13:17:43;144394.03;;;11.31;85.07
5877;BME280;2964;42.144;24.730;2023-03-04T13:20:21;144321.13;;;11.01;85.78
5877;BME280;2964;42.144;24.730;2023-03-04T13:22:56;144258.34;;;10.75;87.63
5877;BME280;2964;42.144;24.730;2023-03-04T13:25:35;144443.00;;;11.51;87.03
5877;BME280;2964;42.144;24.730;2023-03-04T13:28:18;144517.22;;;11.81;85.78